createdAt,value
2019-01-16T00:02:43.400Z,4.10
2019-01-16T00:05:47.381Z,4.30
2019-01-16T00:08:36.195Z,4.40
2019-01-16T00:11:30.423Z,4.83
2019-01-16T00:14:27.864Z,4.17
2019-01-16T00:17:16.939Z,4.63
2019-01-16T00:20:23.510Z,5.30
2019-01-16T00:23:28.516Z,4.30
2019-01-16T00:26:33.477Z,4.10
2019-01-16T00:29:31.006Z,4.27
2019-01-16T00:32:22.747Z,7.33
2019-01-16T00:35:17.277Z,5.97
2019-01-16T00:38:07.569Z,4.30
2019-01-16T00:40:59.042Z,7.17
2019-01-16T00:44:03.855Z,5.30
2019-01-16T00:47:07.177Z,4.27
2019-01-16T00:50:11.772Z,6.60
2019-01-16T00:53:03.376Z,5.50
2019-01-16T00:55:57.737Z,6.00
2019-01-16T00:58:55.245Z,4.43
2019-01-16T01:02:01.856Z,5.27
2019-01-16T01:05:07.764Z,5.20
2019-01-16T01:08:10.838Z,4.93
2019-01-16T01:11:05.879Z,4.97
2019-01-16T01:14:10.944Z,5.47
2019-01-16T01:16:59.309Z,4.90
2019-01-16T01:20:06.426Z,4.27
2019-01-16T01:22:55.150Z,4.10
2019-01-16T01:25:44.032Z,6.10
2019-01-16T01:28:35.309Z,6.10
2019-01-16T01:31:35.937Z,6.43
2019-01-16T01:34:33.279Z,7.30
2019-01-16T01:37:28.124Z,7.47
2019-01-16T01:40:32.998Z,5.83
2019-01-16T01:43:24.324Z,6.10
2019-01-16T01:46:18.932Z,5.47
2019-01-16T01:49:22.644Z,5.30
2019-01-16T01:52:11.211Z,7.03
2019-01-16T01:55:15.701Z,5.43
2019-01-16T01:58:10.107Z,8.07
2019-01-16T02:00:58.832Z,5.57
2019-01-16T02:03:47.688Z,7.10
2019-01-16T02:06:39.349Z,6.03
2019-01-16T02:09:30.647Z,5.83
2019-01-16T02:12:35.656Z,5.80
2019-01-16T02:15:27.009Z,6.60
2019-01-16T02:18:27.533Z,7.20
2019-01-16T02:21:32.564Z,7.33
2019-01-16T02:24:33.356Z,5.77
2019-01-16T02:27:24.424Z,6.90
2019-01-16T02:30:15.153Z,5.87
2019-01-16T02:33:13.078Z,5.63
2019-01-16T02:36:07.440Z,5.47
2019-01-16T02:38:58.856Z,6.03
2019-01-16T02:41:50.704Z,5.23
2019-01-16T02:44:39.627Z,6.30
2019-01-16T02:47:33.699Z,7.00
2019-01-16T02:50:22.416Z,7.67
2019-01-16T02:53:19.907Z,6.57
2019-01-16T02:56:24.228Z,9.37
2019-01-16T02:59:21.817Z,8.83
2019-01-16T03:02:10.850Z,9.53
2019-01-16T03:05:08.809Z,9.70
2019-01-16T03:08:00.695Z,8.37
2019-01-16T03:10:49.724Z,10.60
2019-01-16T03:13:41.240Z,8.00
2019-01-16T03:16:46.350Z,9.67
2019-01-16T03:19:38.485Z,8.57
2019-01-16T03:22:27.357Z,7.33
2019-01-16T03:25:16.489Z,8.00
2019-01-16T03:28:10.977Z,9.37
2019-01-16T03:31:09.194Z,8.00
2019-01-16T03:33:58.014Z,7.37
2019-01-16T03:36:49.598Z,9.43
2019-01-16T03:39:55.040Z,8.77
2019-01-16T03:42:47.106Z,8.47
2019-01-16T03:45:42.132Z,8.13
2019-01-16T03:48:46.129Z,7.58
2019-01-16T03:51:35.427Z,7.90
2019-01-16T03:54:39.332Z,7.07
2019-01-16T03:57:31.030Z,6.80
2019-01-16T04:00:26.139Z,42.23
2019-01-16T04:03:23.920Z,11.33
2019-01-16T04:06:13.109Z,6.90
2019-01-16T04:09:18.437Z,6.85
2019-01-16T04:12:22.976Z,7.10
2019-01-16T04:15:23.129Z,7.07
2019-01-16T04:18:28.051Z,7.33
2019-01-16T04:21:17.269Z,8.80
2019-01-16T04:24:06.532Z,7.03
2019-01-16T04:27:01.559Z,9.63
2019-01-16T04:29:53.152Z,8.25
2019-01-16T04:32:44.262Z,9.83
2019-01-16T04:35:33.089Z,9.77
2019-01-16T04:38:22.224Z,9.30
2019-01-16T04:41:26.318Z,10.13
2019-01-16T04:44:15.357Z,10.07
2019-01-16T04:47:07.247Z,10.33
2019-01-16T04:49:56.160Z,9.73
2019-01-16T04:52:56.854Z,8.83
2019-01-16T04:55:45.613Z,8.77
2019-01-16T04:58:50.814Z,9.43
2019-01-16T05:01:54.486Z,7.77
2019-01-16T05:04:45.893Z,7.67
2019-01-16T05:07:37.714Z,7.60
2019-01-16T05:10:29.346Z,9.40
2019-01-16T05:13:18.084Z,11.13
2019-01-16T05:16:06.677Z,12.60
2019-01-16T05:18:58.208Z,10.47
2019-01-16T05:21:47.214Z,9.33
2019-01-16T05:24:39.160Z,10.53
2019-01-16T05:27:44.494Z,11.15
2019-01-16T05:30:36.569Z,9.80
2019-01-16T05:33:25.619Z,9.68
2019-01-16T05:36:26.712Z,9.40
2019-01-16T05:39:24.621Z,9.17
2019-01-16T05:42:22.240Z,9.47
2019-01-16T05:45:17.527Z,9.33
2019-01-16T05:48:12.368Z,10.70
2019-01-16T05:51:13.286Z,10.63
2019-01-16T05:54:11.014Z,9.83
2019-01-16T05:56:59.956Z,9.17
2019-01-16T06:00:00.543Z,8.67
2019-01-16T06:02:49.300Z,9.73
2019-01-16T06:05:40.895Z,9.13
2019-01-16T06:08:46.252Z,9.67
2019-01-16T06:11:43.776Z,10.70
2019-01-16T06:14:35.420Z,11.75
2019-01-16T06:17:24.346Z,10.80
2019-01-16T06:20:18.848Z,10.45
2019-01-16T06:23:13.579Z,9.60
2019-01-16T06:26:14.495Z,11.97
2019-01-16T06:29:15.241Z,13.03
2019-01-16T06:32:04.416Z,10.40
2019-01-16T06:35:05.110Z,11.77
2019-01-16T06:37:59.973Z,12.90
2019-01-16T06:40:49.115Z,10.60
2019-01-16T06:43:40.425Z,10.50
2019-01-16T06:46:43.729Z,12.40
2019-01-16T06:49:32.727Z,11.60
2019-01-16T06:52:21.727Z,13.25
2019-01-16T06:55:26.584Z,14.07
2019-01-16T06:58:27.853Z,11.77
2019-01-16T07:01:16.859Z,13.10
2019-01-16T07:04:15.051Z,11.70
2019-01-16T07:07:16.164Z,13.05
2019-01-16T07:10:06.442Z,13.37
2019-01-16T07:13:13.653Z,14.83
2019-01-16T07:16:11.660Z,17.53
2019-01-16T07:19:06.796Z,15.00
2019-01-16T07:21:55.861Z,9.93
2019-01-16T07:24:44.914Z,11.57
2019-01-16T07:27:33.717Z,10.83
2019-01-16T07:30:22.775Z,11.48
2019-01-16T07:33:12.005Z,12.60
2019-01-16T07:36:07.112Z,11.75
2019-01-16T07:38:58.808Z,11.33
2019-01-16T07:41:53.445Z,10.40
2019-01-16T07:44:58.419Z,10.90
2019-01-16T07:47:49.972Z,11.47
2019-01-16T07:50:39.444Z,25.97
2019-01-16T07:53:44.150Z,13.43
2019-01-16T07:56:49.632Z,20.33
2019-01-16T07:59:38.725Z,18.47
2019-01-16T08:02:27.565Z,25.87
2019-01-16T08:05:16.585Z,22.60
2019-01-16T08:08:06.144Z,21.00
2019-01-16T08:11:11.337Z,17.80
2019-01-16T08:14:00.642Z,17.02
2019-01-16T08:16:52.722Z,84.27
2019-01-16T08:19:57.664Z,19.57
2019-01-16T08:23:01.716Z,16.00
2019-01-16T08:26:02.120Z,10.67
2019-01-16T08:29:07.370Z,12.43
2019-01-16T08:32:12.185Z,10.93
2019-01-16T08:35:01.441Z,9.40
2019-01-16T08:37:56.490Z,8.60
2019-01-16T08:40:48.462Z,8.30
2019-01-16T08:43:37.602Z,9.30
2019-01-16T08:46:32.619Z,7.85
2019-01-16T08:49:39.104Z,7.20
2019-01-16T08:52:33.889Z,7.20
2019-01-16T08:55:28.867Z,9.00
2019-01-16T08:58:17.372Z,7.23
2019-01-16T09:01:21.277Z,7.20
2019-01-16T09:04:09.979Z,11.53
2019-01-16T09:06:58.713Z,8.20
2019-01-16T09:09:50.228Z,8.93
2019-01-16T09:12:51.002Z,7.90
2019-01-16T09:15:39.628Z,7.37
2019-01-16T09:18:40.150Z,7.97
2019-01-16T09:21:28.521Z,8.83
2019-01-16T09:24:22.781Z,7.10
2019-01-16T09:27:17.299Z,8.27
2019-01-16T09:30:17.879Z,7.70
2019-01-16T09:33:22.656Z,7.90
2019-01-16T09:36:11.434Z,8.63
2019-01-16T09:39:00.388Z,8.33
2019-01-16T09:41:49.378Z,8.37
2019-01-16T09:44:47.239Z,10.37
2019-01-16T09:47:48.494Z,9.97
2019-01-16T09:50:39.456Z,9.80
2019-01-16T09:53:36.765Z,10.23
2019-01-16T09:56:25.829Z,10.23
2019-01-16T09:59:14.985Z,10.03
2019-01-16T10:02:19.575Z,10.00
2019-01-16T10:05:09.873Z,9.23
2019-01-16T10:08:02.059Z,8.40
2019-01-16T10:10:57.403Z,8.83
2019-01-16T10:13:46.606Z,7.55
2019-01-16T10:16:50.444Z,8.90
2019-01-16T10:19:39.762Z,7.53
2019-01-16T10:22:38.077Z,6.40
2019-01-16T10:25:30.548Z,6.55
2019-01-16T10:28:19.722Z,5.85
2019-01-16T10:31:24.245Z,5.45
2019-01-16T10:34:22.532Z,5.72
2019-01-16T10:37:17.768Z,6.87
2019-01-16T10:40:11.245Z,6.25
2019-01-16T10:43:00.600Z,6.25
2019-01-16T10:46:06.336Z,7.72
2019-01-16T10:49:04.692Z,9.38
2019-01-16T10:51:56.753Z,8.35
2019-01-16T10:54:49.057Z,8.78
2019-01-16T10:57:54.533Z,8.45
2019-01-16T11:00:43.992Z,8.45
2019-01-16T11:03:33.253Z,9.43
2019-01-16T11:06:25.485Z,9.08
2019-01-16T11:09:31.075Z,9.88
2019-01-16T11:12:26.645Z,9.93
2019-01-16T11:15:22.145Z,10.10
2019-01-16T11:18:27.483Z,10.70
2019-01-16T11:21:19.607Z,11.08
2019-01-16T11:24:26.920Z,10.65
2019-01-16T11:27:22.285Z,10.32
2019-01-16T11:30:15.825Z,11.50
2019-01-16T11:33:21.245Z,10.40
2019-01-16T11:36:13.472Z,11.38
2019-01-16T11:39:18.921Z,10.85
2019-01-16T11:42:08.402Z,11.33
2019-01-16T11:45:12.164Z,10.10
2019-01-16T11:48:05.329Z,9.43
2019-01-16T11:50:57.091Z,8.43
2019-01-16T11:54:10.424Z,9.63
2019-01-16T11:56:59.900Z,10.40
2019-01-16T11:59:49.106Z,10.95
2019-01-16T12:02:41.439Z,11.25
2019-01-16T12:05:30.529Z,11.50
2019-01-16T12:08:25.982Z,11.43
2019-01-16T12:11:31.097Z,11.90
2019-01-16T12:14:31.510Z,11.30
2019-01-16T12:17:23.233Z,11.85
2019-01-16T12:20:23.841Z,11.07
2019-01-16T12:23:12.772Z,10.57
2019-01-16T12:26:08.293Z,10.60
2019-01-16T12:28:57.169Z,11.70
2019-01-16T12:31:51.705Z,10.93
2019-01-16T12:34:48.962Z,10.33
2019-01-16T12:37:49.679Z,13.33
2019-01-16T12:40:44.198Z,10.40
2019-01-16T12:43:35.589Z,9.73
2019-01-16T12:46:24.500Z,9.93
2019-01-16T12:49:12.871Z,9.67
2019-01-16T12:52:01.780Z,11.17
2019-01-16T12:55:05.203Z,12.27
2019-01-16T12:58:13.200Z,10.23
2019-01-16T13:01:02.316Z,10.73
2019-01-16T13:03:51.082Z,10.13
2019-01-16T13:06:39.909Z,10.53
2019-01-16T13:09:43.698Z,10.77
2019-01-16T13:12:35.269Z,10.20
2019-01-16T13:15:35.874Z,10.03
2019-01-16T13:18:24.661Z,8.23
2019-01-16T13:21:19.233Z,8.73
2019-01-16T13:24:26.123Z,8.53
2019-01-16T13:27:17.741Z,9.13
2019-01-16T13:30:11.962Z,10.23
2019-01-16T13:33:12.702Z,9.27
2019-01-16T13:36:16.448Z,9.50
2019-01-16T13:39:15.416Z,11.03
2019-01-16T13:42:21.776Z,10.20
2019-01-16T13:45:10.711Z,13.00
2019-01-16T13:48:02.172Z,12.17
2019-01-16T13:50:50.525Z,9.87
2019-01-16T13:53:42.341Z,10.27
2019-01-16T13:56:31.021Z,9.70
2019-01-16T13:59:19.545Z,11.67
2019-01-16T14:02:17.052Z,12.40
2019-01-16T14:05:07.801Z,10.07
2019-01-16T14:08:12.544Z,9.77
2019-01-16T14:11:03.586Z,15.40
2019-01-16T14:14:00.594Z,17.23
2019-01-16T14:16:45.431Z,16.90
2019-01-16T14:19:34.303Z,17.63
2019-01-16T14:22:23.270Z,15.70
2019-01-16T14:25:11.926Z,14.40
2019-01-16T14:28:09.558Z,9.63
2019-01-16T14:31:00.910Z,11.63
2019-01-16T14:33:55.268Z,11.70
2019-01-16T14:36:52.880Z,11.73
2019-01-16T14:39:50.409Z,15.63
2019-01-16T14:42:39.178Z,15.83
2019-01-16T14:45:33.447Z,17.73
2019-01-16T14:48:22.183Z,15.63
2019-01-16T14:51:11.244Z,11.03
2019-01-16T14:54:16.119Z,9.70
2019-01-16T14:57:04.835Z,2.90
2019-01-16T15:00:09.745Z,4.03
2019-01-16T15:03:00.884Z,3.20
2019-01-16T15:05:49.784Z,2.10
2019-01-16T15:08:53.216Z,1.80
2019-01-16T15:11:53.969Z,4.40
2019-01-16T15:15:00.656Z,1.60
2019-01-16T15:17:49.309Z,1.70
2019-01-16T15:20:38.384Z,1.60
2019-01-16T15:23:39.156Z,1.40
2019-01-16T15:26:30.686Z,1.20
2019-01-16T15:29:36.025Z,1.57
2019-01-16T15:32:31.177Z,2.30
2019-01-16T15:35:26.518Z,2.30
2019-01-16T15:38:18.105Z,1.40
2019-01-16T15:41:07.446Z,1.60
2019-01-16T15:43:58.791Z,2.47
2019-01-16T15:47:05.660Z,1.50
2019-01-16T15:50:10.572Z,2.67
2019-01-16T15:53:11.083Z,2.20
2019-01-16T15:56:12.011Z,3.23
2019-01-16T15:59:06.931Z,1.47
2019-01-16T16:01:55.900Z,1.60
2019-01-16T16:04:44.842Z,1.47
2019-01-16T16:07:49.835Z,1.80
2019-01-16T16:10:48.056Z,2.07
2019-01-16T16:13:36.876Z,1.50
2019-01-16T16:16:40.761Z,1.50
2019-01-16T16:19:47.372Z,1.40
2019-01-16T16:22:52.546Z,1.67
2019-01-16T16:25:41.882Z,1.70
2019-01-16T16:28:39.454Z,2.60
2019-01-16T16:31:31.080Z,1.70
2019-01-16T16:34:20.083Z,1.80
2019-01-16T16:37:09.357Z,1.82
2019-01-16T16:40:14.403Z,1.77
2019-01-16T16:43:15.354Z,1.83
2019-01-16T16:46:04.137Z,2.00
2019-01-16T16:49:08.316Z,2.00
2019-01-16T16:51:57.282Z,1.97
2019-01-16T16:54:57.809Z,2.27
2019-01-16T16:57:49.807Z,2.02
2019-01-16T17:00:44.532Z,2.47
2019-01-16T17:03:49.761Z,2.00
2019-01-16T17:06:53.469Z,1.63
2019-01-16T17:09:58.559Z,1.57
2019-01-16T17:12:47.631Z,26.85
2019-01-16T17:15:52.851Z,5.60
2019-01-16T17:18:56.627Z,8.47
2019-01-16T17:21:48.444Z,3.43
2019-01-16T17:24:37.203Z,2.08
2019-01-16T17:27:29.185Z,3.10
2019-01-16T17:30:27.345Z,2.00
2019-01-16T17:33:31.347Z,1.70
2019-01-16T17:36:20.450Z,3.20
2019-01-16T17:39:25.633Z,3.90
2019-01-16T17:42:18.468Z,2.83
2019-01-16T17:45:20.853Z,4.03
2019-01-16T17:48:18.815Z,3.70
2019-01-16T17:51:10.964Z,2.53
2019-01-16T17:54:16.272Z,2.17
2019-01-16T17:57:21.441Z,1.65
2019-01-16T18:00:22.292Z,1.73
2019-01-16T18:03:17.092Z,1.53
2019-01-16T18:06:06.166Z,1.62
2019-01-16T18:08:55.229Z,1.73
2019-01-16T18:11:44.644Z,2.90
2019-01-16T18:14:40.011Z,1.70
2019-01-16T18:17:44.586Z,1.70
2019-01-16T18:20:39.054Z,1.73
2019-01-16T18:23:37.430Z,1.60
2019-01-16T18:26:37.909Z,1.70
2019-01-16T18:29:27.055Z,1.70
2019-01-16T18:32:27.885Z,1.53
2019-01-16T18:35:16.927Z,1.60
2019-01-16T18:38:05.977Z,1.80
2019-01-16T18:40:55.095Z,1.50
2019-01-16T18:44:00.328Z,1.70
2019-01-16T18:47:05.526Z,1.60
2019-01-16T18:50:05.897Z,1.73
2019-01-16T18:52:57.772Z,2.17
2019-01-16T18:55:49.372Z,1.77
2019-01-16T18:58:38.151Z,2.10
2019-01-16T19:01:27.175Z,1.67
2019-01-16T19:04:28.007Z,1.40
2019-01-16T19:07:33.476Z,1.80
2019-01-16T19:10:38.806Z,2.20
2019-01-16T19:13:33.827Z,1.73
2019-01-16T19:16:25.715Z,1.70
2019-01-16T19:19:17.764Z,1.77
2019-01-16T19:22:12.380Z,1.73
2019-01-16T19:25:17.622Z,1.93
2019-01-16T19:28:15.835Z,1.90
2019-01-16T19:31:04.655Z,1.80
2019-01-16T19:33:53.356Z,1.70
2019-01-16T19:36:44.971Z,1.73
2019-01-16T19:39:48.588Z,1.60
2019-01-16T19:42:43.502Z,1.72
2019-01-16T19:45:50.783Z,1.50
2019-01-16T19:48:58.057Z,1.70
2019-01-16T19:51:50.113Z,1.32
2019-01-16T19:54:44.888Z,1.60
2019-01-16T19:57:49.825Z,1.63
2019-01-16T20:00:54.354Z,1.62
2019-01-16T20:03:43.358Z,1.73
2019-01-16T20:06:32.512Z,1.40
2019-01-16T20:09:37.347Z,1.60
2019-01-16T20:12:32.007Z,1.80
2019-01-16T20:15:30.067Z,1.70
2019-01-16T20:18:30.985Z,1.60
2019-01-16T20:21:19.941Z,1.90
2019-01-16T20:24:20.897Z,1.80
2019-01-16T20:27:10.334Z,1.92
2019-01-16T20:30:04.864Z,1.80
2019-01-16T20:32:57.023Z,1.70
2019-01-16T20:35:45.938Z,1.70
2019-01-16T20:38:49.743Z,1.50
2019-01-16T20:41:47.935Z,1.52
2019-01-16T20:44:46.092Z,1.50
2019-01-16T20:47:51.052Z,1.53
2019-01-16T20:50:55.939Z,1.63
2019-01-16T20:53:45.139Z,1.90
2019-01-16T20:56:37.288Z,1.75
2019-01-16T20:59:32.152Z,2.17
2019-01-16T21:02:21.103Z,2.40
2019-01-16T21:05:10.402Z,2.03
2019-01-16T21:08:14.507Z,2.27
2019-01-16T21:11:06.192Z,2.52
2019-01-16T21:14:01.376Z,2.77
2019-01-16T21:16:59.514Z,2.33
2019-01-16T21:20:04.897Z,2.47
2019-01-16T21:22:54.008Z,2.37
2019-01-16T21:25:52.081Z,2.00
2019-01-16T21:28:49.805Z,1.70
2019-01-16T21:31:47.446Z,1.80
2019-01-16T21:34:52.550Z,1.70
2019-01-16T21:37:41.545Z,1.80
2019-01-16T21:40:32.909Z,1.90
2019-01-16T21:43:24.825Z,1.98
2019-01-16T21:46:29.620Z,2.10
2019-01-16T21:49:34.623Z,2.37
2019-01-16T21:52:26.493Z,2.13
2019-01-16T21:55:21.546Z,2.00
2019-01-16T21:58:16.309Z,1.80
2019-01-16T22:01:05.533Z,2.07
2019-01-16T22:03:54.468Z,1.63
2019-01-16T22:06:46.366Z,2.33
2019-01-16T22:09:47.207Z,1.70
2019-01-16T22:12:42.210Z,1.87
2019-01-16T22:15:31.119Z,1.77
2019-01-16T22:18:25.941Z,2.23
2019-01-16T22:21:14.966Z,2.40
2019-01-16T22:24:19.737Z,1.80
2019-01-16T22:27:24.475Z,1.80
2019-01-16T22:30:22.490Z,1.60
2019-01-16T22:33:11.724Z,1.90
2019-01-16T22:36:00.452Z,2.10
2019-01-16T22:39:01.120Z,2.20
2019-01-16T22:41:50.264Z,1.90
2019-01-16T22:44:39.202Z,2.10
2019-01-16T22:47:27.968Z,2.17
2019-01-16T22:50:33.041Z,2.10
2019-01-16T22:53:22.148Z,2.42
2019-01-16T22:56:11.144Z,2.72
2019-01-16T22:59:08.892Z,2.10
2019-01-16T23:02:00.609Z,2.47
2019-01-16T23:05:01.481Z,2.30
2019-01-16T23:07:53.380Z,2.50
2019-01-16T23:10:44.925Z,2.73
2019-01-16T23:13:39.960Z,2.57
2019-01-16T23:16:38.005Z,3.30
2019-01-16T23:19:32.914Z,2.40
2019-01-16T23:22:21.837Z,3.73
2019-01-16T23:25:27.122Z,3.10
2019-01-16T23:28:25.261Z,3.10
2019-01-16T23:31:14.349Z,3.17
2019-01-16T23:34:18.035Z,2.80
2019-01-16T23:37:09.782Z,4.10
2019-01-16T23:40:16.817Z,3.40
2019-01-16T23:43:09.081Z,3.73
2019-01-16T23:46:00.224Z,4.17
2019-01-16T23:49:04.961Z,3.80
2019-01-16T23:52:08.954Z,3.57
2019-01-16T23:54:57.656Z,4.33
2019-01-16T23:57:47.076Z,3.95
